createdAt,value
2018-02-20T00:00:30.050Z,97825.57
2018-02-20T00:01:01.678Z,97827.05
2018-02-20T00:01:33.302Z,97822.20
2018-02-20T00:02:04.926Z,97819.48
2018-02-20T00:02:36.550Z,97823.44
2018-02-20T00:03:08.218Z,97821.37
2018-02-20T00:03:39.846Z,97824.41
2018-02-20T00:04:11.466Z,97825.64
2018-02-20T00:04:43.094Z,97815.86
2018-02-20T00:05:14.724Z,97818.34
2018-02-20T00:05:46.350Z,97821.63
2018-02-20T00:06:17.974Z,97819.43
2018-02-20T00:06:49.602Z,97818.52
2018-02-20T00:07:21.226Z,97814.70
2018-02-20T00:07:52.890Z,97818.02
2018-02-20T00:08:24.549Z,97819.30
2018-02-20T00:08:56.213Z,97813.77
2018-02-20T00:09:27.839Z,97818.02
2018-02-20T00:09:59.466Z,97815.88
2018-02-20T00:10:31.090Z,97820.52
2018-02-20T00:11:02.726Z,97822.22
2018-02-20T00:11:34.354Z,97818.38
2018-02-20T00:12:05.987Z,97815.34
2018-02-20T00:12:37.610Z,97815.33
2018-02-20T00:13:09.336Z,97811.50
2018-02-20T00:13:41.009Z,97813.22
2018-02-20T00:14:12.682Z,97809.80
2018-02-20T00:14:44.305Z,97814.48
2018-02-20T00:15:15.930Z,97814.00
2018-02-20T00:15:47.558Z,97816.54
2018-02-20T00:16:19.186Z,97808.42
2018-02-20T00:16:50.818Z,97809.70
2018-02-20T00:17:22.442Z,97805.08
2018-02-20T00:17:54.070Z,97811.89
2018-02-20T00:18:25.698Z,97805.51
2018-02-20T00:18:57.322Z,97812.77
2018-02-20T00:19:28.954Z,97812.30
2018-02-20T00:20:00.614Z,97803.78
2018-02-20T00:20:32.286Z,97807.19
2018-02-20T00:21:04.098Z,97813.16
2018-02-20T00:21:35.722Z,97811.87
2018-02-20T00:22:07.346Z,97803.98
2018-02-20T00:22:38.969Z,97812.30
2018-02-20T00:23:10.599Z,97810.97
2018-02-20T00:23:42.221Z,97812.66
2018-02-20T00:24:13.850Z,97808.06
2018-02-20T00:24:45.482Z,97804.28
2018-02-20T00:25:17.137Z,97802.17
2018-02-20T00:25:49.337Z,97810.22
2018-02-20T00:26:21.002Z,97814.07
2018-02-20T00:26:52.626Z,97810.23
2018-02-20T00:27:24.249Z,97802.22
2018-02-20T00:27:55.874Z,97803.92
2018-02-20T00:28:27.501Z,97804.77
2018-02-20T00:28:59.131Z,97802.66
2018-02-20T00:29:30.754Z,97799.67
2018-02-20T00:30:02.378Z,97798.76
2018-02-20T00:30:34.011Z,97798.70
2018-02-20T00:31:05.687Z,97799.60
2018-02-20T00:31:37.399Z,97807.75
2018-02-20T00:32:09.031Z,97799.17
2018-02-20T00:32:40.818Z,97805.56
2018-02-20T00:33:12.490Z,97802.16
2018-02-20T00:33:44.114Z,97805.97
2018-02-20T00:34:15.738Z,97801.73
2018-02-20T00:34:47.370Z,97798.39
2018-02-20T00:35:19.006Z,97801.37
2018-02-20T00:35:50.638Z,97800.10
2018-02-20T00:36:22.266Z,97799.66
2018-02-20T00:36:53.939Z,97800.52
2018-02-20T00:37:25.566Z,97801.37
2018-02-20T00:37:57.199Z,97797.17
2018-02-20T00:38:28.826Z,97792.50
2018-02-20T00:39:00.460Z,97801.44
2018-02-20T00:39:32.090Z,97800.16
2018-02-20T00:40:03.715Z,97796.75
2018-02-20T00:40:35.386Z,97795.91
2018-02-20T00:41:07.022Z,97795.54
2018-02-20T00:41:38.649Z,97796.41
2018-02-20T00:42:10.270Z,97797.67
2018-02-20T00:42:41.894Z,97799.80
2018-02-20T00:43:13.714Z,97794.27
2018-02-20T00:43:45.348Z,97790.50
2018-02-20T00:44:16.974Z,97797.73
2018-02-20T00:44:48.606Z,97794.33
2018-02-20T00:45:20.230Z,97794.75
2018-02-20T00:45:51.854Z,97796.38
2018-02-20T00:46:23.478Z,97796.39
2018-02-20T00:46:55.097Z,97793.43
2018-02-20T00:47:26.730Z,97792.14
2018-02-20T00:47:58.353Z,97798.52
2018-02-20T00:48:30.019Z,97794.27
2018-02-20T00:49:01.642Z,97798.08
2018-02-20T00:49:33.274Z,97794.25
2018-02-20T00:50:04.958Z,97795.06
2018-02-20T00:50:36.581Z,97793.43
2018-02-20T00:51:08.214Z,97791.73
2018-02-20T00:51:39.843Z,97793.47
2018-02-20T00:52:11.466Z,97792.58
2018-02-20T00:52:43.099Z,97794.27
2018-02-20T00:53:14.726Z,97790.81
2018-02-20T00:53:46.350Z,97798.04
2018-02-20T00:54:17.974Z,97788.25
2018-02-20T00:54:49.598Z,97788.25
2018-02-20T00:55:21.267Z,97789.95
2018-02-20T00:55:52.894Z,97796.27
2018-02-20T00:56:24.526Z,97790.75
2018-02-20T00:56:56.158Z,97788.69
2018-02-20T00:57:27.787Z,97792.02
2018-02-20T00:57:59.410Z,97787.83
2018-02-20T00:58:31.034Z,97785.77
2018-02-20T00:59:02.846Z,97791.71
2018-02-20T00:59:34.475Z,97790.86
2018-02-20T01:00:06.098Z,97781.03
2018-02-20T01:00:37.723Z,97786.98
2018-02-20T01:01:09.345Z,97788.63
2018-02-20T01:01:40.969Z,97786.12
2018-02-20T01:02:12.593Z,97783.08
2018-02-20T01:02:44.215Z,97784.78
2018-02-20T01:03:15.842Z,97787.28
2018-02-20T01:03:47.466Z,97784.77
2018-02-20T01:04:19.090Z,97787.64
2018-02-20T01:04:50.718Z,97783.00
2018-02-20T01:05:22.342Z,97787.70
2018-02-20T01:05:54.014Z,97784.31
2018-02-20T01:06:25.646Z,97786.43
2018-02-20T01:06:57.269Z,97781.38
2018-02-20T01:07:28.893Z,97784.30
2018-02-20T01:08:00.523Z,97783.52
2018-02-20T01:08:32.156Z,97788.61
2018-02-20T01:09:03.812Z,97777.55
2018-02-20T01:09:35.438Z,97783.09
2018-02-20T01:10:07.066Z,97786.05
2018-02-20T01:10:38.690Z,97783.45
2018-02-20T01:11:10.365Z,97782.64
2018-02-20T01:11:41.995Z,97785.63
2018-02-20T01:12:13.622Z,97782.67
2018-02-20T01:12:45.250Z,97785.27
2018-02-20T01:13:16.883Z,97791.15
2018-02-20T01:13:48.505Z,97786.85
2018-02-20T01:14:20.134Z,97784.73
2018-02-20T01:14:51.758Z,97788.62
2018-02-20T01:15:23.386Z,97787.45
2018-02-20T01:15:55.010Z,97780.05
2018-02-20T01:16:26.676Z,97786.01
2018-02-20T01:16:58.310Z,97787.33
2018-02-20T01:17:29.934Z,97786.48
2018-02-20T01:18:01.558Z,97785.69
2018-02-20T01:18:33.182Z,97782.71
2018-02-20T01:19:04.811Z,97787.35
2018-02-20T01:19:36.434Z,97779.75
2018-02-20T01:20:08.057Z,97781.08
2018-02-20T01:20:39.687Z,97781.08
2018-02-20T01:21:11.358Z,97779.39
2018-02-20T01:21:42.987Z,97792.16
2018-02-20T01:22:14.619Z,97781.58
2018-02-20T01:22:46.242Z,97788.27
2018-02-20T01:23:17.917Z,97785.33
2018-02-20T01:23:49.538Z,97784.43
2018-02-20T01:24:21.162Z,97790.81
2018-02-20T01:24:52.798Z,97787.05
2018-02-20T01:25:24.427Z,97788.31
2018-02-20T01:25:56.053Z,97786.25
2018-02-20T01:26:27.682Z,97791.34
2018-02-20T01:26:59.306Z,97789.30
2018-02-20T01:27:30.934Z,97788.45
2018-02-20T01:28:02.565Z,97788.94
2018-02-20T01:28:34.234Z,97790.99
2018-02-20T01:29:05.866Z,97791.48
2018-02-20T01:29:37.490Z,97783.03
2018-02-20T01:30:09.118Z,97786.80
2018-02-20T01:30:40.747Z,97793.63
2018-02-20T01:31:12.378Z,97791.13
2018-02-20T01:31:44.011Z,97790.34
2018-02-20T01:32:15.638Z,97788.16
2018-02-20T01:32:47.266Z,97788.20
2018-02-20T01:33:18.889Z,97786.52
2018-02-20T01:33:50.574Z,97786.14
2018-02-20T01:34:22.202Z,97789.59
2018-02-20T01:34:53.834Z,97784.40
2018-02-20T01:35:25.466Z,97794.64
2018-02-20T01:35:57.090Z,97788.22
2018-02-20T01:36:28.721Z,97791.18
2018-02-20T01:37:00.343Z,97784.89
2018-02-20T01:37:31.974Z,97786.16
2018-02-20T01:38:03.598Z,97789.24
2018-02-20T01:38:35.226Z,97765.55
2018-02-20T01:39:06.902Z,97784.09
2018-02-20T01:39:38.532Z,97787.98
2018-02-20T01:40:10.158Z,97783.35
2018-02-20T01:40:41.787Z,97781.61
2018-02-20T01:41:13.416Z,97778.20
2018-02-20T01:41:45.046Z,97782.45
2018-02-20T01:42:16.670Z,97784.62
2018-02-20T01:42:48.302Z,97783.72
2018-02-20T01:43:19.925Z,97781.12
2018-02-20T01:43:51.558Z,97786.22
2018-02-20T01:44:23.247Z,97779.83
2018-02-20T01:44:54.876Z,97782.39
2018-02-20T01:45:26.527Z,97784.52
2018-02-20T01:45:58.154Z,97784.58
2018-02-20T01:46:29.783Z,97779.95
2018-02-20T01:47:01.414Z,97779.53
2018-02-20T01:47:33.042Z,97779.12
2018-02-20T01:48:04.670Z,97782.91
2018-02-20T01:48:36.298Z,97783.39
2018-02-20T01:49:07.925Z,97782.59
2018-02-20T01:49:39.590Z,97783.81
2018-02-20T01:50:11.218Z,97782.10
2018-02-20T01:50:42.885Z,97785.02
2018-02-20T01:51:14.505Z,97786.75
2018-02-20T01:51:46.139Z,97784.94
2018-02-20T01:52:17.766Z,97787.05
2018-02-20T01:52:49.391Z,97784.15
2018-02-20T01:53:21.018Z,97778.25
2018-02-20T01:53:52.641Z,97785.47
2018-02-20T01:54:24.265Z,97789.63
2018-02-20T01:54:55.954Z,97779.95
2018-02-20T01:55:27.578Z,97782.03
2018-02-20T01:55:59.206Z,97768.56
2018-02-20T01:56:30.835Z,97782.03
2018-02-20T01:57:02.463Z,97783.30
2018-02-20T01:57:34.095Z,97782.81
2018-02-20T01:58:05.769Z,97783.66
2018-02-20T01:58:37.385Z,97783.23
2018-02-20T01:59:09.011Z,97787.06
2018-02-20T01:59:40.638Z,97781.55
2018-02-20T02:00:12.322Z,97784.08
2018-02-20T02:00:43.946Z,97786.98
2018-02-20T02:01:15.570Z,97784.01
2018-02-20T02:01:47.197Z,97785.65
2018-02-20T02:02:18.822Z,97783.05
2018-02-20T02:02:50.451Z,97778.86
2018-02-20T02:03:22.077Z,97778.91
2018-02-20T02:03:53.707Z,97778.50
2018-02-20T02:04:25.339Z,97778.08
2018-02-20T02:04:56.963Z,97777.65
2018-02-20T02:05:28.642Z,97781.09
2018-02-20T02:06:00.269Z,97778.56
2018-02-20T02:06:31.902Z,97776.88
2018-02-20T02:07:03.530Z,97780.31
2018-02-20T02:07:35.154Z,97777.78
2018-02-20T02:08:06.778Z,97782.02
2018-02-20T02:08:38.406Z,97778.14
2018-02-20T02:09:10.030Z,97788.33
2018-02-20T02:09:41.658Z,97772.59
2018-02-20T02:10:13.281Z,97776.74
2018-02-20T02:10:44.954Z,97775.08
2018-02-20T02:11:16.574Z,97782.27
2018-02-20T02:11:48.203Z,97778.91
2018-02-20T02:12:19.826Z,97775.47
2018-02-20T02:12:51.455Z,97783.59
2018-02-20T02:13:23.082Z,97778.93
2018-02-20T02:13:54.711Z,97772.91
2018-02-20T02:14:26.337Z,97775.44
2018-02-20T02:14:57.967Z,97775.45
2018-02-20T02:15:29.592Z,97781.03
2018-02-20T02:16:01.214Z,97778.06
2018-02-20T02:16:32.846Z,97777.59
2018-02-20T02:17:04.470Z,97775.87
2018-02-20T02:17:36.102Z,97773.74
2018-02-20T02:18:07.726Z,97778.42
2018-02-20T02:18:39.349Z,97777.95
2018-02-20T02:19:10.978Z,97777.58
2018-02-20T02:19:42.610Z,97775.87
2018-02-20T02:20:14.243Z,97774.61
2018-02-20T02:20:45.915Z,97780.55
2018-02-20T02:21:17.547Z,97779.66
2018-02-20T02:21:49.170Z,97779.22
2018-02-20T02:22:20.802Z,97781.34
2018-02-20T02:22:52.425Z,97777.53
2018-02-20T02:23:24.054Z,97776.61
2018-02-20T02:23:55.679Z,97768.52
2018-02-20T02:24:27.309Z,97772.36
2018-02-20T02:24:58.966Z,97773.14
2018-02-20T02:25:30.590Z,97779.08
2018-02-20T02:26:02.286Z,97774.84
2018-02-20T02:26:33.913Z,97779.95
2018-02-20T02:27:05.538Z,97779.56
2018-02-20T02:27:37.162Z,97773.92
2018-02-20T02:28:08.786Z,97776.47
2018-02-20T02:28:40.410Z,97776.84
2018-02-20T02:29:12.038Z,97777.14
2018-02-20T02:29:43.662Z,97774.59
2018-02-20T02:30:15.292Z,97780.11
2018-02-20T02:30:46.923Z,97774.22
2018-02-20T02:31:18.611Z,97785.20
2018-02-20T02:31:50.246Z,97781.73
2018-02-20T02:32:21.883Z,97776.09
2018-02-20T02:32:53.506Z,97770.20
2018-02-20T02:33:25.129Z,97782.52
2018-02-20T02:33:56.750Z,97774.87
2018-02-20T02:34:28.379Z,97777.48
2018-02-20T02:35:00.006Z,97784.70
2018-02-20T02:35:31.634Z,97778.42
2018-02-20T02:36:03.263Z,97776.72
2018-02-20T02:36:34.946Z,97781.80
2018-02-20T02:37:06.570Z,97777.92
2018-02-20T02:37:38.200Z,97780.46
2018-02-20T02:38:09.831Z,97784.28
2018-02-20T02:38:41.466Z,97781.33
2018-02-20T02:39:13.101Z,97777.20
2018-02-20T02:39:44.739Z,97772.08
2018-02-20T02:40:16.365Z,97776.27
2018-02-20T02:40:47.997Z,97771.16
2018-02-20T02:41:19.631Z,97769.00
2018-02-20T02:41:51.317Z,97779.20
2018-02-20T02:42:22.937Z,97778.81
2018-02-20T02:42:54.558Z,97777.48
2018-02-20T02:43:26.183Z,97776.66
2018-02-20T02:43:57.820Z,97777.92
2018-02-20T02:44:29.466Z,97778.41
2018-02-20T02:45:01.089Z,97775.80
2018-02-20T02:45:32.716Z,97775.44
2018-02-20T02:46:04.345Z,97773.73
2018-02-20T02:46:35.975Z,97777.98
2018-02-20T02:47:07.642Z,97778.47
2018-02-20T02:47:39.323Z,97779.70
2018-02-20T02:48:10.950Z,97774.23
2018-02-20T02:48:42.577Z,97780.05
2018-02-20T02:49:14.202Z,97778.32
2018-02-20T02:49:45.826Z,97781.61
2018-02-20T02:50:17.450Z,97775.72
2018-02-20T02:50:49.073Z,97774.98
2018-02-20T02:51:20.697Z,97779.20
2018-02-20T02:51:52.326Z,97776.29
2018-02-20T02:52:23.956Z,97779.69
2018-02-20T02:52:55.591Z,97776.39
2018-02-20T02:53:27.221Z,97782.36
2018-02-20T02:53:58.848Z,97778.05
2018-02-20T02:54:30.479Z,97778.04
2018-02-20T02:55:02.109Z,97774.22
2018-02-20T02:55:33.743Z,97778.48
2018-02-20T02:56:05.393Z,97779.38
2018-02-20T02:56:37.066Z,97776.89
2018-02-20T02:57:08.690Z,97781.58
2018-02-20T02:57:40.317Z,97776.42
2018-02-20T02:58:11.942Z,97777.62
2018-02-20T02:58:43.574Z,97775.19
2018-02-20T02:59:15.207Z,97765.19
2018-02-20T02:59:46.889Z,97784.48
2018-02-20T03:00:18.518Z,97779.75
2018-02-20T03:00:50.141Z,97779.38
2018-02-20T03:01:21.791Z,97777.27
2018-02-20T03:01:53.423Z,97780.73
2018-02-20T03:02:25.094Z,97782.44
2018-02-20T03:02:56.718Z,97782.50
2018-02-20T03:03:28.342Z,97775.33
2018-02-20T03:03:59.975Z,97778.84
2018-02-20T03:04:31.598Z,97780.48
2018-02-20T03:05:03.229Z,97775.81
2018-02-20T03:05:34.859Z,97774.13
2018-02-20T03:06:06.482Z,97780.98
2018-02-20T03:06:38.109Z,97774.55
2018-02-20T03:07:09.784Z,97781.84
2018-02-20T03:07:41.406Z,97775.11
2018-02-20T03:08:13.078Z,97779.00
2018-02-20T03:08:44.697Z,97778.13
2018-02-20T03:09:16.317Z,97775.64
2018-02-20T03:09:47.943Z,97782.05
2018-02-20T03:10:19.566Z,97778.28
2018-02-20T03:10:51.195Z,97773.68
2018-02-20T03:11:22.822Z,97774.95
2018-02-20T03:11:54.446Z,97773.25
2018-02-20T03:12:26.074Z,97777.13
2018-02-20T03:12:57.706Z,97774.58
2018-02-20T03:13:29.330Z,97771.66
2018-02-20T03:14:00.959Z,97779.31
2018-02-20T03:14:32.590Z,97780.58
2018-02-20T03:15:04.218Z,97780.16
2018-02-20T03:15:35.847Z,97777.73
2018-02-20T03:16:07.474Z,97782.42
2018-02-20T03:16:39.097Z,97773.55
2018-02-20T03:17:10.766Z,97780.30
2018-02-20T03:17:42.391Z,97773.55
2018-02-20T03:18:14.013Z,97780.30
2018-02-20T03:18:45.633Z,97774.36
2018-02-20T03:19:17.257Z,97772.66
2018-02-20T03:19:48.878Z,97779.52
2018-02-20T03:20:20.501Z,97772.77
2018-02-20T03:20:52.122Z,97771.97
2018-02-20T03:21:23.746Z,97776.65
2018-02-20T03:21:55.410Z,97771.97
2018-02-20T03:22:27.101Z,97773.25
2018-02-20T03:22:58.726Z,97771.50
2018-02-20T03:23:30.350Z,97774.09
2018-02-20T03:24:01.977Z,97776.16
2018-02-20T03:24:33.602Z,97771.48
2018-02-20T03:25:05.227Z,97769.31
2018-02-20T03:25:36.856Z,97767.61
2018-02-20T03:26:08.483Z,97764.16
2018-02-20T03:26:40.110Z,97767.92
2018-02-20T03:27:11.737Z,97759.46
2018-02-20T03:27:43.406Z,97765.31
2018-02-20T03:28:15.034Z,97766.39
2018-02-20T03:28:46.657Z,97763.42
2018-02-20T03:29:18.322Z,97765.17
2018-02-20T03:29:49.954Z,97759.71
2018-02-20T03:30:21.583Z,97764.08
2018-02-20T03:30:53.218Z,97764.14
2018-02-20T03:31:24.841Z,97762.80
2018-02-20T03:31:56.462Z,97767.05
2018-02-20T03:32:28.086Z,97768.32
2018-02-20T03:32:59.750Z,97750.30
2018-02-20T03:33:31.374Z,97764.02
2018-02-20T03:34:03.047Z,97760.62
2018-02-20T03:34:34.675Z,97761.84
2018-02-20T03:35:06.302Z,97770.81
2018-02-20T03:35:37.926Z,97766.09
2018-02-20T03:36:09.550Z,97767.83
2018-02-20T03:36:41.182Z,97761.36
2018-02-20T03:37:12.806Z,97766.88
2018-02-20T03:37:44.430Z,97762.98
2018-02-20T03:38:16.058Z,97762.12
2018-02-20T03:38:47.682Z,97764.20
2018-02-20T03:39:19.350Z,97764.65
2018-02-20T03:39:50.974Z,97761.24
2018-02-20T03:40:22.598Z,97764.22
2018-02-20T03:40:54.270Z,97759.97
2018-02-20T03:41:25.894Z,97762.47
2018-02-20T03:41:57.517Z,97767.58
2018-02-20T03:42:29.146Z,97768.41
2018-02-20T03:43:00.778Z,97763.25
2018-02-20T03:43:32.402Z,97765.80
2018-02-20T03:44:04.082Z,97764.94
2018-02-20T03:44:35.711Z,97766.54
2018-02-20T03:45:07.334Z,97763.50
2018-02-20T03:45:38.963Z,97766.95
2018-02-20T03:46:10.593Z,97762.21
2018-02-20T03:46:42.218Z,97760.51
2018-02-20T03:47:13.850Z,97767.30
2018-02-20T03:47:45.470Z,97765.23
2018-02-20T03:48:17.093Z,97763.91
2018-02-20T03:48:48.713Z,97765.98
2018-02-20T03:49:20.378Z,97765.12
2018-02-20T03:49:52.006Z,97765.85
2018-02-20T03:50:23.630Z,97763.72
2018-02-20T03:50:55.257Z,97764.56
2018-02-20T03:51:26.886Z,97767.84
2018-02-20T03:51:58.514Z,97764.06
2018-02-20T03:52:30.138Z,97764.48
2018-02-20T03:53:01.769Z,97764.38
2018-02-20T03:53:33.398Z,97772.83
2018-02-20T03:54:05.022Z,97767.72
2018-02-20T03:54:36.649Z,97768.48
2018-02-20T03:55:08.280Z,97766.42
2018-02-20T03:55:39.905Z,97766.44
2018-02-20T03:56:11.538Z,97765.17
2018-02-20T03:56:43.170Z,97772.81
2018-02-20T03:57:14.793Z,97769.34
2018-02-20T03:57:46.417Z,97772.67
2018-02-20T03:58:18.050Z,97770.14
2018-02-20T03:58:49.677Z,97770.13
2018-02-20T03:59:21.358Z,97772.62
2018-02-20T03:59:52.981Z,97767.92
2018-02-20T04:00:24.605Z,97765.80
2018-02-20T04:00:56.225Z,97769.08
2018-02-20T04:01:27.858Z,97774.19
2018-02-20T04:01:59.484Z,97769.02
2018-02-20T04:02:31.110Z,97768.63
2018-02-20T04:03:02.800Z,97774.23
2018-02-20T04:03:34.430Z,97772.95
2018-02-20T04:04:06.054Z,97768.23
2018-02-20T04:04:37.718Z,97766.45
2018-02-20T04:05:09.352Z,97774.96
2018-02-20T04:05:40.982Z,97775.38
2018-02-20T04:06:12.606Z,97772.00
2018-02-20T04:06:44.230Z,97771.27
2018-02-20T04:07:15.853Z,97756.65
2018-02-20T04:07:47.481Z,97775.16
2018-02-20T04:08:19.111Z,97777.64
2018-02-20T04:08:50.734Z,97769.94
2018-02-20T04:09:22.410Z,97776.73
2018-02-20T04:09:54.034Z,97770.84
2018-02-20T04:10:25.659Z,97770.91
2018-02-20T04:10:57.282Z,97774.32
2018-02-20T04:11:28.910Z,97768.72
2018-02-20T04:12:00.538Z,97770.43
2018-02-20T04:12:32.166Z,97777.22
2018-02-20T04:13:03.794Z,97774.23
2018-02-20T04:13:35.424Z,97776.37
2018-02-20T04:14:07.058Z,97774.30
2018-02-20T04:14:38.743Z,97777.30
2018-02-20T04:15:10.382Z,97768.77
2018-02-20T04:15:42.006Z,97774.74
2018-02-20T04:16:13.635Z,97769.75
2018-02-20T04:16:45.257Z,97772.75
2018-02-20T04:17:16.886Z,97771.46
2018-02-20T04:17:48.514Z,97778.71
2018-02-20T04:18:20.138Z,97782.58
2018-02-20T04:18:51.766Z,97780.82
2018-02-20T04:19:23.400Z,97785.02
2018-02-20T04:19:55.075Z,97787.58
2018-02-20T04:20:26.702Z,97782.96
2018-02-20T04:20:58.326Z,97778.64
2018-02-20T04:21:29.954Z,97781.62
2018-02-20T04:22:01.594Z,97784.64
2018-02-20T04:22:33.221Z,97785.98
2018-02-20T04:23:04.848Z,97777.85
2018-02-20T04:23:36.474Z,97782.53
2018-02-20T04:24:08.145Z,97782.59
2018-02-20T04:24:39.766Z,97785.56
2018-02-20T04:25:11.390Z,97781.39
2018-02-20T04:25:43.010Z,97780.11
2018-02-20T04:26:14.638Z,97788.73
2018-02-20T04:26:46.258Z,97787.89
2018-02-20T04:27:17.881Z,97781.95
2018-02-20T04:27:49.506Z,97782.87
2018-02-20T04:28:21.129Z,97784.93
2018-02-20T04:28:52.754Z,97789.29
2018-02-20T04:29:24.378Z,97788.94
2018-02-20T04:29:56.002Z,97794.05
2018-02-20T04:30:27.626Z,97781.77
2018-02-20T04:30:59.254Z,97787.83
2018-02-20T04:31:30.877Z,97779.41
2018-02-20T04:32:02.506Z,97785.02
2018-02-20T04:32:34.130Z,97787.60
2018-02-20T04:33:05.754Z,97770.83
2018-02-20T04:33:37.378Z,97782.61
2018-02-20T04:34:09.056Z,97780.91
2018-02-20T04:34:40.686Z,97782.66
2018-02-20T04:35:12.310Z,97780.12
2018-02-20T04:35:43.942Z,97786.96
2018-02-20T04:36:15.566Z,97781.40
2018-02-20T04:36:47.189Z,97788.23
2018-02-20T04:37:18.813Z,97782.66
2018-02-20T04:37:50.437Z,97779.27
2018-02-20T04:38:22.074Z,97776.76
2018-02-20T04:38:53.703Z,97783.16
2018-02-20T04:39:25.378Z,97784.02
2018-02-20T04:39:57.001Z,97781.98
2018-02-20T04:40:28.625Z,97782.47
2018-02-20T04:41:00.249Z,97785.87
2018-02-20T04:41:31.870Z,97779.08
2018-02-20T04:42:03.498Z,97776.58
2018-02-20T04:42:35.122Z,97780.41
2018-02-20T04:43:06.750Z,97784.19
2018-02-20T04:43:38.378Z,97779.14
2018-02-20T04:44:10.003Z,97779.14
2018-02-20T04:44:41.634Z,97783.87
2018-02-20T04:45:13.264Z,97777.56
2018-02-20T04:45:44.931Z,97778.78
2018-02-20T04:46:16.554Z,97786.86
2018-02-20T04:46:48.210Z,97784.73
2018-02-20T04:47:19.844Z,97781.39
2018-02-20T04:47:51.470Z,97787.86
2018-02-20T04:48:23.095Z,97779.33
2018-02-20T04:48:54.722Z,97782.29
2018-02-20T04:49:26.354Z,97780.65
2018-02-20T04:49:57.973Z,97779.33
2018-02-20T04:50:29.593Z,97775.91
2018-02-20T04:51:01.227Z,97726.01
2018-02-20T04:51:32.849Z,97781.38
2018-02-20T04:52:04.611Z,97768.34
2018-02-20T04:52:36.234Z,97777.55
2018-02-20T04:53:07.867Z,97777.50
2018-02-20T04:53:39.497Z,97783.44
2018-02-20T04:54:11.121Z,97773.67
2018-02-20T04:54:42.746Z,97777.38
2018-02-20T04:55:14.374Z,97774.77
2018-02-20T04:55:45.998Z,97776.89
2018-02-20T04:56:17.626Z,97779.02
2018-02-20T04:56:49.251Z,97778.10
2018-02-20T04:57:20.922Z,97780.66
2018-02-20T04:57:52.550Z,97776.72
2018-02-20T04:58:24.173Z,97777.98
2018-02-20T04:58:55.839Z,97777.98
2018-02-20T04:59:27.470Z,97777.93
2018-02-20T04:59:59.098Z,97776.64
2018-02-20T05:00:30.722Z,97777.49
2018-02-20T05:01:02.342Z,97779.19
2018-02-20T05:01:33.970Z,97774.58
2018-02-20T05:02:05.591Z,97773.72
2018-02-20T05:02:37.213Z,97774.11
2018-02-20T05:03:08.838Z,97779.62
2018-02-20T05:03:40.466Z,97780.84
2018-02-20T05:04:12.134Z,97773.61
2018-02-20T05:04:43.758Z,97777.91
2018-02-20T05:05:15.381Z,97778.36
2018-02-20T05:05:47.005Z,97773.26
2018-02-20T05:06:18.626Z,97781.77
2018-02-20T05:06:50.363Z,97778.35
2018-02-20T05:07:21.990Z,97774.58
2018-02-20T05:07:53.625Z,97777.19
2018-02-20T05:08:25.249Z,97774.23
2018-02-20T05:08:56.919Z,97781.08
2018-02-20T05:09:28.543Z,97775.56
2018-02-20T05:10:00.174Z,97780.72
2018-02-20T05:10:31.807Z,97776.16
2018-02-20T05:11:03.431Z,97776.22
2018-02-20T05:11:35.060Z,97785.22
2018-02-20T05:12:06.691Z,97779.74
2018-02-20T05:12:38.334Z,97783.58
2018-02-20T05:13:09.962Z,97780.23
2018-02-20T05:13:41.614Z,97781.55
2018-02-20T05:14:13.303Z,97782.41
2018-02-20T05:14:44.928Z,97779.02
2018-02-20T05:15:16.554Z,97783.70
2018-02-20T05:15:48.638Z,97784.97
2018-02-20T05:16:20.273Z,97780.72
2018-02-20T05:16:51.893Z,97785.81
2018-02-20T05:17:23.518Z,97784.10
2018-02-20T05:17:55.142Z,97781.56
2018-02-20T05:18:26.774Z,97779.81
2018-02-20T05:18:58.399Z,97781.93
2018-02-20T05:19:30.066Z,97782.66
2018-02-20T05:20:01.698Z,97780.10
2018-02-20T05:20:33.326Z,97781.74
2018-02-20T05:21:04.950Z,97785.03
2018-02-20T05:21:36.573Z,97780.30
2018-02-20T05:22:08.244Z,97782.41
2018-02-20T05:22:39.875Z,97783.69
2018-02-20T05:23:11.497Z,97781.89
2018-02-20T05:23:43.121Z,97789.16
2018-02-20T05:24:14.742Z,97783.64
2018-02-20T05:24:46.402Z,97788.72
2018-02-20T05:25:18.027Z,97783.16
2018-02-20T05:25:49.701Z,97781.45
2018-02-20T05:26:21.330Z,97785.27
2018-02-20T05:26:52.962Z,97783.92
2018-02-20T05:27:24.587Z,97781.33
2018-02-20T05:27:56.210Z,97779.20
2018-02-20T05:28:27.839Z,97783.81
2018-02-20T05:28:59.466Z,97783.30
2018-02-20T05:29:31.090Z,97781.19
2018-02-20T05:30:02.719Z,97785.34
2018-02-20T05:30:34.346Z,97782.75
2018-02-20T05:31:06.026Z,97788.59
2018-02-20T05:31:37.650Z,97788.02
2018-02-20T05:32:09.274Z,97784.91
2018-02-20T05:32:40.906Z,97785.69
2018-02-20T05:33:12.534Z,97789.09
2018-02-20T05:33:44.179Z,97785.20
2018-02-20T05:34:15.802Z,97787.70
2018-02-20T05:34:47.426Z,97790.97
2018-02-20T05:35:19.059Z,97788.78
2018-02-20T05:35:50.683Z,97790.06
2018-02-20T05:36:22.349Z,97794.67
2018-02-20T05:36:53.975Z,97793.02
2018-02-20T05:37:25.606Z,97798.13
2018-02-20T05:37:57.278Z,97795.58
2018-02-20T05:38:28.906Z,97794.67
2018-02-20T05:39:00.538Z,97795.88
2018-02-20T05:39:32.165Z,97800.55
2018-02-20T05:40:03.793Z,97800.27
2018-02-20T05:40:35.417Z,97794.73
2018-02-20T05:41:07.046Z,97796.84
2018-02-20T05:41:38.670Z,97800.67
2018-02-20T05:42:10.303Z,97797.21
2018-02-20T05:42:41.934Z,97798.12
2018-02-20T05:43:13.598Z,97797.66
2018-02-20T05:43:45.234Z,97800.70
2018-02-20T05:44:16.862Z,97801.97
2018-02-20T05:44:48.486Z,97801.13
2018-02-20T05:45:20.111Z,97802.45
2018-02-20T05:45:51.735Z,97799.00
2018-02-20T05:46:23.363Z,97799.91
2018-02-20T05:46:54.990Z,97800.38
2018-02-20T05:47:26.663Z,97797.77
2018-02-20T05:47:58.295Z,97804.58
2018-02-20T05:48:29.918Z,97805.43
2018-02-20T05:49:01.542Z,97802.89
2018-02-20T05:49:33.169Z,97802.94
2018-02-20T05:50:04.798Z,97800.41
2018-02-20T05:50:36.477Z,97800.03
2018-02-20T05:51:08.107Z,97799.68
2018-02-20T05:51:39.738Z,97800.16
2018-02-20T05:52:11.367Z,97801.42
2018-02-20T05:52:42.989Z,97804.41
2018-02-20T05:53:14.614Z,97798.52
2018-02-20T05:53:46.247Z,97796.77
2018-02-20T05:54:17.876Z,97808.66
2018-02-20T05:54:49.502Z,97804.77
2018-02-20T05:55:21.131Z,97799.26
2018-02-20T05:55:52.802Z,97800.09
2018-02-20T05:56:24.430Z,97802.29
2018-02-20T05:56:56.053Z,97807.41
2018-02-20T05:57:27.678Z,97803.19
2018-02-20T05:57:59.404Z,97800.64
2018-02-20T05:58:31.018Z,97803.14
2018-02-20T05:59:02.649Z,97804.46
2018-02-20T05:59:34.270Z,97801.92
2018-02-20T06:00:05.899Z,97803.55
2018-02-20T06:00:37.527Z,97800.58
2018-02-20T06:01:09.154Z,97805.21
2018-02-20T06:01:40.781Z,97801.85
2018-02-20T06:02:12.406Z,97805.69
2018-02-20T06:02:44.030Z,97802.72
2018-02-20T06:03:15.711Z,97803.67
2018-02-20T06:03:47.342Z,97804.55
2018-02-20T06:04:18.967Z,97800.78
2018-02-20T06:04:50.611Z,97803.81
2018-02-20T06:05:22.274Z,97803.28
2018-02-20T06:05:53.902Z,97801.13
2018-02-20T06:06:25.535Z,97801.14
2018-02-20T06:06:57.166Z,97801.57
2018-02-20T06:07:28.794Z,97804.55
2018-02-20T06:08:00.421Z,97803.70
2018-02-20T06:08:32.049Z,97804.17
2018-02-20T06:09:03.695Z,97807.15
2018-02-20T06:09:35.360Z,97805.45
2018-02-20T06:10:06.987Z,97804.66
2018-02-20T06:10:38.882Z,97806.84
2018-02-20T06:11:10.506Z,97803.81
2018-02-20T06:11:42.132Z,97805.63